Terminal Aerodrome Forecast
Issued by NWS Omaha/Valley, NE

Home | Current Version | Previous Version | Graphics & Text | Print | Product List | Glossary On
Versions: 1 2 3 4 5 6 7 8 9 10 11 12 13 14 15 16 17 18 19 20 21 22 23 24 25 26 27 28 29 30 31 32 33 34 35 36 37 38 39 40 41 42 43
000
FTUS43 KOAX 201506 AAB
TAFOFK
TAF AMD
KOFK 201506Z 2015/2112 18015G23KT P6SM OVC015
      TEMPO 2017/2018 BKN025
     FM201800 18015G24KT P6SM SCT035
      TEMPO 2018/2020 BKN030
     FM202100 18014G22KT P6SM SCT050
     FM210000 16009KT P6SM SCT070
     FM210900 17006KT 5SM BR SCT250=

USA.gov is the U.S. government's official web portal to all federal, state and local government web resources and services.